sensor_id;sensor_type;location;lat;lon;timestamp;temperature;humidity
10384;DHT22;5238;43.508;4.980;2022-09-09T00:01:06;22.20;91.30
10384;DHT22;5238;43.508;4.980;2022-09-09T00:03:43;22.20;91.30
10384;DHT22;5238;43.508;4.980;2022-09-09T00:06:17;22.10;91.30
10384;DHT22;5238;43.508;4.980;2022-09-09T00:08:54;22.10;91.30
10384;DHT22;5238;43.508;4.980;2022-09-09T00:11:26;22.10;91.30
10384;DHT22;5238;43.508;4.980;2022-09-09T00:13:57;22.00;91.30
10384;DHT22;5238;43.508;4.980;2022-09-09T00:16:34;22.00;91.30
10384;DHT22;5238;43.508;4.980;2022-09-09T00:19:07;21.90;91.30
10384;DHT22;5238;43.508;4.980;2022-09-09T00:21:37;21.90;91.30
10384;DHT22;5238;43.508;4.980;2022-09-09T00:24:22;21.90;91.30
10384;DHT22;5238;43.508;4.980;2022-09-09T00:27:04;21.80;91.30
10384;DHT22;5238;43.508;4.980;2022-09-09T00:29:41;21.80;91.30
10384;DHT22;5238;43.508;4.980;2022-09-09T00:32:13;21.80;91.30
10384;DHT22;5238;43.508;4.980;2022-09-09T00:34:47;21.80;91.30
10384;DHT22;5238;43.508;4.980;2022-09-09T00:37:15;21.80;91.30
10384;DHT22;5238;43.508;4.980;2022-09-09T00:39:44;21.80;91.30
10384;DHT22;5238;43.508;4.980;2022-09-09T00:42:15;21.80;91.30
10384;DHT22;5238;43.508;4.980;2022-09-09T00:44:52;21.80;91.30
10384;DHT22;5238;43.508;4.980;2022-09-09T00:47:40;21.80;91.30
10384;DHT22;5238;43.508;4.980;2022-09-09T00:50:30;21.70;91.30
10384;DHT22;5238;43.508;4.980;2022-09-09T00:53:21;21.70;91.30
10384;DHT22;5238;43.508;4.980;2022-09-09T00:55:55;21.70;91.30
10384;DHT22;5238;43.508;4.980;2022-09-09T00:58:24;21.70;91.30
10384;DHT22;5238;43.508;4.980;2022-09-09T01:00:59;21.70;91.30
10384;DHT22;5238;43.508;4.980;2022-09-09T01:13:52;21.60;91.30
10384;DHT22;5238;43.508;4.980;2022-09-09T01:16:21;21.60;91.30
10384;DHT22;5238;43.508;4.980;2022-09-09T01:22:56;21.60;91.30
10384;DHT22;5238;43.508;4.980;2022-09-09T01:28:19;21.60;91.30
10384;DHT22;5238;43.508;4.980;2022-09-09T01:30:47;21.60;91.30
10384;DHT22;5238;43.508;4.980;2022-09-09T01:33:17;21.60;91.30
10384;DHT22;5238;43.508;4.980;2022-09-09T01:35:48;21.60;91.30
10384;DHT22;5238;43.508;4.980;2022-09-09T01:38:20;21.60;91.30
10384;DHT22;5238;43.508;4.980;2022-09-09T01:40:47;21.60;91.30
10384;DHT22;5238;43.508;4.980;2022-09-09T01:43:18;21.60;91.30
10384;DHT22;5238;43.508;4.980;2022-09-09T01:56:40;21.40;91.30
10384;DHT22;5238;43.508;4.980;2022-09-09T01:59:39;21.30;91.30
10384;DHT22;5238;43.508;4.980;2022-09-09T02:02:12;21.30;91.30
10384;DHT22;5238;43.508;4.980;2022-09-09T02:04:44;21.30;91.30
10384;DHT22;5238;43.508;4.980;2022-09-09T02:07:37;21.20;91.30
10384;DHT22;5238;43.508;4.980;2022-09-09T02:10:12;21.20;91.30
10384;DHT22;5238;43.508;4.980;2022-09-09T02:12:44;21.20;91.30
10384;DHT22;5238;43.508;4.980;2022-09-09T02:15:18;21.20;91.30
10384;DHT22;5238;43.508;4.980;2022-09-09T02:17:57;21.10;91.30
10384;DHT22;5238;43.508;4.980;2022-09-09T02:20:25;21.10;91.30
10384;DHT22;5238;43.508;4.980;2022-09-09T02:29:45;21.10;91.30
10384;DHT22;5238;43.508;4.980;2022-09-09T02:32:24;21.10;91.30
10384;DHT22;5238;43.508;4.980;2022-09-09T02:34:59;21.10;91.30
10384;DHT22;5238;43.508;4.980;2022-09-09T02:37:33;21.00;91.30
10384;DHT22;5238;43.508;4.980;2022-09-09T02:40:06;21.00;91.30
10384;DHT22;5238;43.508;4.980;2022-09-09T02:42:38;21.00;91.30
10384;DHT22;5238;43.508;4.980;2022-09-09T02:45:19;21.00;91.30
10384;DHT22;5238;43.508;4.980;2022-09-09T02:47:55;21.00;91.30
10384;DHT22;5238;43.508;4.980;2022-09-09T02:50:28;20.90;91.30
10384;DHT22;5238;43.508;4.980;2022-09-09T02:53:06;20.90;91.30
10384;DHT22;5238;43.508;4.980;2022-09-09T02:55:39;20.90;91.30
10384;DHT22;5238;43.508;4.980;2022-09-09T02:58:10;20.90;91.30
10384;DHT22;5238;43.508;4.980;2022-09-09T03:00:44;20.90;91.30
10384;DHT22;5238;43.508;4.980;2022-09-09T03:03:15;20.90;91.30
10384;DHT22;5238;43.508;4.980;2022-09-09T03:05:43;20.80;91.30
10384;DHT22;5238;43.508;4.980;2022-09-09T03:08:11;20.80;91.30
10384;DHT22;5238;43.508;4.980;2022-09-09T03:10:39;20.80;91.30
10384;DHT22;5238;43.508;4.980;2022-09-09T03:13:08;20.80;91.30
10384;DHT22;5238;43.508;4.980;2022-09-09T03:15:35;20.80;91.30
10384;DHT22;5238;43.508;4.980;2022-09-09T03:18:04;20.80;91.30
10384;DHT22;5238;43.508;4.980;2022-09-09T03:20:33;20.80;91.30
10384;DHT22;5238;43.508;4.980;2022-09-09T03:29:59;20.70;91.30
10384;DHT22;5238;43.508;4.980;2022-09-09T03:32:29;20.70;91.30
10384;DHT22;5238;43.508;4.980;2022-09-09T03:34:57;20.70;91.30
10384;DHT22;5238;43.508;4.980;2022-09-09T03:37:25;20.70;91.30
10384;DHT22;5238;43.508;4.980;2022-09-09T03:39:53;20.70;91.30
10384;DHT22;5238;43.508;4.980;2022-09-09T03:42:21;20.70;91.30
10384;DHT22;5238;43.508;4.980;2022-09-09T03:44:48;20.70;91.30
10384;DHT22;5238;43.508;4.980;2022-09-09T03:47:19;20.70;91.30
10384;DHT22;5238;43.508;4.980;2022-09-09T03:49:48;20.60;91.30
10384;DHT22;5238;43.508;4.980;2022-09-09T03:52:17;20.60;91.30
10384;DHT22;5238;43.508;4.980;2022-09-09T03:54:46;20.60;91.30
10384;DHT22;5238;43.508;4.980;2022-09-09T03:57:13;20.60;91.30
10384;DHT22;5238;43.508;4.980;2022-09-09T03:59:42;20.60;91.30
10384;DHT22;5238;43.508;4.980;2022-09-09T04:02:10;20.60;91.30
10384;DHT22;5238;43.508;4.980;2022-09-09T04:04:37;20.50;91.30
10384;DHT22;5238;43.508;4.980;2022-09-09T04:07:05;20.50;91.30
10384;DHT22;5238;43.508;4.980;2022-09-09T04:09:32;20.50;91.30
10384;DHT22;5238;43.508;4.980;2022-09-09T04:12:02;20.50;91.30
10384;DHT22;5238;43.508;4.980;2022-09-09T04:14:32;20.40;91.30
10384;DHT22;5238;43.508;4.980;2022-09-09T04:20:21;20.40;91.30
10384;DHT22;5238;43.508;4.980;2022-09-09T04:22:48;20.40;91.30
10384;DHT22;5238;43.508;4.980;2022-09-09T04:25:21;20.40;91.30
10384;DHT22;5238;43.508;4.980;2022-09-09T04:27:55;20.30;91.30
10384;DHT22;5238;43.508;4.980;2022-09-09T04:30:24;20.30;91.30
10384;DHT22;5238;43.508;4.980;2022-09-09T04:32:53;20.30;91.30
10384;DHT22;5238;43.508;4.980;2022-09-09T04:35:20;20.30;91.30
10384;DHT22;5238;43.508;4.980;2022-09-09T04:37:47;20.30;91.30
10384;DHT22;5238;43.508;4.980;2022-09-09T04:40:14;20.30;91.30
10384;DHT22;5238;43.508;4.980;2022-09-09T04:42:43;20.20;91.30
10384;DHT22;5238;43.508;4.980;2022-09-09T04:45:13;20.20;91.30
10384;DHT22;5238;43.508;4.980;2022-09-09T04:47:52;20.20;91.30
10384;DHT22;5238;43.508;4.980;2022-09-09T04:50:30;20.20;91.30
10384;DHT22;5238;43.508;4.980;2022-09-09T04:53:13;20.10;91.30
10384;DHT22;5238;43.508;4.980;2022-09-09T04:56:02;20.10;91.30
10384;DHT22;5238;43.508;4.980;2022-09-09T04:58:30;20.10;91.30
10384;DHT22;5238;43.508;4.980;2022-09-09T05:04:12;20.10;91.30
10384;DHT22;5238;43.508;4.980;2022-09-09T05:06:41;20.10;91.30
10384;DHT22;5238;43.508;4.980;2022-09-09T05:09:11;20.00;91.30
10384;DHT22;5238;43.508;4.980;2022-09-09T05:11:39;20.00;91.30
10384;DHT22;5238;43.508;4.980;2022-09-09T05:14:09;20.00;91.30
10384;DHT22;5238;43.508;4.980;2022-09-09T05:16:38;20.00;91.30
10384;DHT22;5238;43.508;4.980;2022-09-09T05:19:10;20.00;91.30
10384;DHT22;5238;43.508;4.980;2022-09-09T05:21:38;19.90;91.30
10384;DHT22;5238;43.508;4.980;2022-09-09T05:24:07;20.00;91.30
10384;DHT22;5238;43.508;4.980;2022-09-09T05:30:35;19.90;91.30
10384;DHT22;5238;43.508;4.980;2022-09-09T05:33:02;19.90;91.30
10384;DHT22;5238;43.508;4.980;2022-09-09T05:35:31;19.90;91.30
10384;DHT22;5238;43.508;4.980;2022-09-09T05:38:01;19.90;91.30
10384;DHT22;5238;43.508;4.980;2022-09-09T05:40:28;19.90;91.30
10384;DHT22;5238;43.508;4.980;2022-09-09T05:43:00;20.00;91.30
10384;DHT22;5238;43.508;4.980;2022-09-09T05:45:28;20.00;91.30
10384;DHT22;5238;43.508;4.980;2022-09-09T05:47:55;20.00;91.30
10384;DHT22;5238;43.508;4.980;2022-09-09T05:50:23;20.10;91.30
10384;DHT22;5238;43.508;4.980;2022-09-09T05:52:50;20.10;91.30
10384;DHT22;5238;43.508;4.980;2022-09-09T05:55:19;20.10;91.30
10384;DHT22;5238;43.508;4.980;2022-09-09T05:57:48;20.20;91.30
10384;DHT22;5238;43.508;4.980;2022-09-09T06:00:19;20.20;91.30
10384;DHT22;5238;43.508;4.980;2022-09-09T06:02:51;20.30;91.30
10384;DHT22;5238;43.508;4.980;2022-09-09T06:05:19;20.40;91.30
10384;DHT22;5238;43.508;4.980;2022-09-09T06:07:51;20.50;91.30
10384;DHT22;5238;43.508;4.980;2022-09-09T06:10:23;20.60;91.30
10384;DHT22;5238;43.508;4.980;2022-09-09T06:12:53;20.80;91.30
10384;DHT22;5238;43.508;4.980;2022-09-09T06:15:30;20.90;91.30
10384;DHT22;5238;43.508;4.980;2022-09-09T06:17:57;21.00;91.30
10384;DHT22;5238;43.508;4.980;2022-09-09T06:20:24;21.10;91.30
10384;DHT22;5238;43.508;4.980;2022-09-09T06:22:53;21.20;91.30
10384;DHT22;5238;43.508;4.980;2022-09-09T06:25:20;21.40;91.30
10384;DHT22;5238;43.508;4.980;2022-09-09T06:27:54;21.50;91.30
10384;DHT22;5238;43.508;4.980;2022-09-09T06:30:21;21.60;91.30
10384;DHT22;5238;43.508;4.980;2022-09-09T06:32:51;21.80;91.30
10384;DHT22;5238;43.508;4.980;2022-09-09T06:35:18;22.00;91.30
10384;DHT22;5238;43.508;4.980;2022-09-09T06:37:45;22.30;91.30
10384;DHT22;5238;43.508;4.980;2022-09-09T06:40:14;22.40;91.30
10384;DHT22;5238;43.508;4.980;2022-09-09T06:42:41;22.70;91.30
10384;DHT22;5238;43.508;4.980;2022-09-09T06:45:10;23.00;91.30
10384;DHT22;5238;43.508;4.980;2022-09-09T06:47:37;23.30;91.30
10384;DHT22;5238;43.508;4.980;2022-09-09T06:50:05;23.60;91.30
10384;DHT22;5238;43.508;4.980;2022-09-09T06:52:36;23.90;91.30
10384;DHT22;5238;43.508;4.980;2022-09-09T06:55:04;24.30;91.30
10384;DHT22;5238;43.508;4.980;2022-09-09T06:57:35;24.70;91.30
10384;DHT22;5238;43.508;4.980;2022-09-09T07:00:03;24.90;91.30
10384;DHT22;5238;43.508;4.980;2022-09-09T07:02:34;25.10;91.30
10384;DHT22;5238;43.508;4.980;2022-09-09T07:05:05;25.20;91.30
10384;DHT22;5238;43.508;4.980;2022-09-09T07:07:33;25.30;91.30
10384;DHT22;5238;43.508;4.980;2022-09-09T07:10:00;25.30;91.30
10384;DHT22;5238;43.508;4.980;2022-09-09T07:12:30;25.30;91.30
10384;DHT22;5238;43.508;4.980;2022-09-09T07:14:57;25.30;91.30
10384;DHT22;5238;43.508;4.980;2022-09-09T07:17:24;25.30;91.30
10384;DHT22;5238;43.508;4.980;2022-09-09T07:19:57;25.30;91.30
10384;DHT22;5238;43.508;4.980;2022-09-09T07:22:24;25.30;91.30
10384;DHT22;5238;43.508;4.980;2022-09-09T07:24:51;25.30;91.30
10384;DHT22;5238;43.508;4.980;2022-09-09T07:27:18;25.50;91.30
10384;DHT22;5238;43.508;4.980;2022-09-09T07:29:45;25.80;91.30
10384;DHT22;5238;43.508;4.980;2022-09-09T07:32:12;26.10;91.30
10384;DHT22;5238;43.508;4.980;2022-09-09T07:34:39;26.40;91.30
10384;DHT22;5238;43.508;4.980;2022-09-09T07:37:07;26.90;91.30
10384;DHT22;5238;43.508;4.980;2022-09-09T07:39:41;27.30;91.30
10384;DHT22;5238;43.508;4.980;2022-09-09T07:42:09;27.70;91.30
10384;DHT22;5238;43.508;4.980;2022-09-09T07:44:37;27.70;91.30
10384;DHT22;5238;43.508;4.980;2022-09-09T07:47:05;27.70;91.30
10384;DHT22;5238;43.508;4.980;2022-09-09T07:49:32;27.90;91.30
10384;DHT22;5238;43.508;4.980;2022-09-09T07:51:59;28.00;91.30
10384;DHT22;5238;43.508;4.980;2022-09-09T07:54:31;28.00;91.30
10384;DHT22;5238;43.508;4.980;2022-09-09T07:56:59;28.00;91.30
10384;DHT22;5238;43.508;4.980;2022-09-09T07:59:26;27.90;91.30
10384;DHT22;5238;43.508;4.980;2022-09-09T08:01:55;27.90;91.30
10384;DHT22;5238;43.508;4.980;2022-09-09T08:04:24;28.00;91.30
10384;DHT22;5238;43.508;4.980;2022-09-09T08:06:53;28.00;91.30
10384;DHT22;5238;43.508;4.980;2022-09-09T08:09:21;28.10;91.30
10384;DHT22;5238;43.508;4.980;2022-09-09T08:11:51;28.10;91.30
10384;DHT22;5238;43.508;4.980;2022-09-09T08:14:18;28.00;91.30
10384;DHT22;5238;43.508;4.980;2022-09-09T08:16:47;27.90;91.30
10384;DHT22;5238;43.508;4.980;2022-09-09T08:19:14;27.80;91.30
10384;DHT22;5238;43.508;4.980;2022-09-09T08:21:42;27.80;91.30
10384;DHT22;5238;43.508;4.980;2022-09-09T08:24:11;27.70;91.30
10384;DHT22;5238;43.508;4.980;2022-09-09T08:26:40;27.70;91.30
10384;DHT22;5238;43.508;4.980;2022-09-09T08:29:11;27.70;91.30
10384;DHT22;5238;43.508;4.980;2022-09-09T08:31:40;27.70;91.30
10384;DHT22;5238;43.508;4.980;2022-09-09T08:34:08;27.80;91.30
10384;DHT22;5238;43.508;4.980;2022-09-09T08:36:37;27.90;91.30
10384;DHT22;5238;43.508;4.980;2022-09-09T08:39:05;28.00;91.30
10384;DHT22;5238;43.508;4.980;2022-09-09T08:42:09;28.30;91.30
10384;DHT22;5238;43.508;4.980;2022-09-09T08:47:42;28.70;91.30
10384;DHT22;5238;43.508;4.980;2022-09-09T08:50:21;28.70;91.30
10384;DHT22;5238;43.508;4.980;2022-09-09T08:52:55;28.80;91.30
10384;DHT22;5238;43.508;4.980;2022-09-09T08:55:31;29.20;91.30
10384;DHT22;5238;43.508;4.980;2022-09-09T08:58:10;29.40;91.30
10384;DHT22;5238;43.508;4.980;2022-09-09T09:00:56;29.40;91.30
10384;DHT22;5238;43.508;4.980;2022-09-09T09:03:34;29.40;91.30
10384;DHT22;5238;43.508;4.980;2022-09-09T09:06:09;29.30;91.30
10384;DHT22;5238;43.508;4.980;2022-09-09T09:11:57;29.30;91.30
10384;DHT22;5238;43.508;4.980;2022-09-09T09:14:29;29.40;91.30
10384;DHT22;5238;43.508;4.980;2022-09-09T09:17:00;29.60;91.30
10384;DHT22;5238;43.508;4.980;2022-09-09T09:19:30;29.70;91.30
10384;DHT22;5238;43.508;4.980;2022-09-09T09:22:04;29.80;91.30
10384;DHT22;5238;43.508;4.980;2022-09-09T09:24:42;29.90;91.30
10384;DHT22;5238;43.508;4.980;2022-09-09T09:27:14;30.00;91.30
10384;DHT22;5238;43.508;4.980;2022-09-09T09:29:43;30.00;91.30
10384;DHT22;5238;43.508;4.980;2022-09-09T09:32:18;30.00;91.30
10384;DHT22;5238;43.508;4.980;2022-09-09T09:34:49;30.10;91.30
10384;DHT22;5238;43.508;4.980;2022-09-09T09:37:26;30.40;91.30
10384;DHT22;5238;43.508;4.980;2022-09-09T09:39:54;30.60;91.30
10384;DHT22;5238;43.508;4.980;2022-09-09T09:42:21;30.60;91.30
10384;DHT22;5238;43.508;4.980;2022-09-09T09:44:50;30.50;91.30
10384;DHT22;5238;43.508;4.980;2022-09-09T09:47:21;30.40;91.30
10384;DHT22;5238;43.508;4.980;2022-09-09T09:49:52;30.40;91.30
10384;DHT22;5238;43.508;4.980;2022-09-09T09:52:26;30.30;91.30
10384;DHT22;5238;43.508;4.980;2022-09-09T09:54:56;30.20;91.30
10384;DHT22;5238;43.508;4.980;2022-09-09T09:57:27;30.20;91.30
10384;DHT22;5238;43.508;4.980;2022-09-09T10:00:04;30.20;91.30
10384;DHT22;5238;43.508;4.980;2022-09-09T10:02:41;30.20;91.30
10384;DHT22;5238;43.508;4.980;2022-09-09T10:05:15;30.10;91.30
10384;DHT22;5238;43.508;4.980;2022-09-09T10:07:59;30.10;91.30
10384;DHT22;5238;43.508;4.980;2022-09-09T10:10:33;30.10;91.30
10384;DHT22;5238;43.508;4.980;2022-09-09T10:13:14;30.10;91.30
10384;DHT22;5238;43.508;4.980;2022-09-09T10:15:50;30.20;91.30
10384;DHT22;5238;43.508;4.980;2022-09-09T10:18:36;30.10;91.30
10384;DHT22;5238;43.508;4.980;2022-09-09T10:21:20;30.00;91.30
10384;DHT22;5238;43.508;4.980;2022-09-09T10:24:16;29.90;91.30
10384;DHT22;5238;43.508;4.980;2022-09-09T10:26:54;29.90;91.30
10384;DHT22;5238;43.508;4.980;2022-09-09T10:29:41;30.00;91.30
10384;DHT22;5238;43.508;4.980;2022-09-09T10:32:33;30.10;91.30
10384;DHT22;5238;43.508;4.980;2022-09-09T10:35:10;30.20;91.30
10384;DHT22;5238;43.508;4.980;2022-09-09T10:38:05;30.20;91.30
10384;DHT22;5238;43.508;4.980;2022-09-09T10:43:36;30.30;91.30
10384;DHT22;5238;43.508;4.980;2022-09-09T10:46:10;30.30;91.30
10384;DHT22;5238;43.508;4.980;2022-09-09T10:49:00;30.20;91.30
10384;DHT22;5238;43.508;4.980;2022-09-09T10:51:40;30.10;91.30
10384;DHT22;5238;43.508;4.980;2022-09-09T10:54:22;29.90;91.30
10384;DHT22;5238;43.508;4.980;2022-09-09T10:56:56;29.90;91.30
10384;DHT22;5238;43.508;4.980;2022-09-09T10:59:25;30.00;91.30
10384;DHT22;5238;43.508;4.980;2022-09-09T11:01:56;30.20;91.30
10384;DHT22;5238;43.508;4.980;2022-09-09T11:04:32;30.20;91.30
10384;DHT22;5238;43.508;4.980;2022-09-09T11:07:13;30.30;91.30
10384;DHT22;5238;43.508;4.980;2022-09-09T11:09:43;30.60;91.30
10384;DHT22;5238;43.508;4.980;2022-09-09T11:12:17;30.70;91.30
10384;DHT22;5238;43.508;4.980;2022-09-09T11:14:47;30.80;91.30
10384;DHT22;5238;43.508;4.980;2022-09-09T11:17:20;30.90;91.30
10384;DHT22;5238;43.508;4.980;2022-09-09T11:19:49;31.10;91.30
10384;DHT22;5238;43.508;4.980;2022-09-09T11:22:24;31.30;91.30
10384;DHT22;5238;43.508;4.980;2022-09-09T11:25:03;31.50;91.30
10384;DHT22;5238;43.508;4.980;2022-09-09T11:27:36;31.70;91.30
10384;DHT22;5238;43.508;4.980;2022-09-09T11:30:22;31.70;91.30
10384;DHT22;5238;43.508;4.980;2022-09-09T11:33:30;31.60;90.90
10384;DHT22;5238;43.508;4.980;2022-09-09T11:36:21;31.40;91.20
10384;DHT22;5238;43.508;4.980;2022-09-09T11:39:00;31.30;91.30
10384;DHT22;5238;43.508;4.980;2022-09-09T11:41:35;31.20;91.30
10384;DHT22;5238;43.508;4.980;2022-09-09T11:44:11;31.20;91.10
10384;DHT22;5238;43.508;4.980;2022-09-09T11:46:40;31.00;91.30
10384;DHT22;5238;43.508;4.980;2022-09-09T11:49:26;30.90;91.30
10384;DHT22;5238;43.508;4.980;2022-09-09T11:51:56;30.90;91.30
10384;DHT22;5238;43.508;4.980;2022-09-09T11:54:32;30.90;91.30
10384;DHT22;5238;43.508;4.980;2022-09-09T11:57:02;30.80;91.30
10384;DHT22;5238;43.508;4.980;2022-09-09T11:59:31;30.80;91.30
10384;DHT22;5238;43.508;4.980;2022-09-09T12:02:00;30.70;91.30
10384;DHT22;5238;43.508;4.980;2022-09-09T12:04:35;30.60;91.30
10384;DHT22;5238;43.508;4.980;2022-09-09T12:07:21;30.60;91.30
10384;DHT22;5238;43.508;4.980;2022-09-09T12:09:52;30.50;91.30
10384;DHT22;5238;43.508;4.980;2022-09-09T12:12:26;30.50;91.30
10384;DHT22;5238;43.508;4.980;2022-09-09T12:15:24;30.50;91.30
10384;DHT22;5238;43.508;4.980;2022-09-09T12:17:55;30.40;91.30
10384;DHT22;5238;43.508;4.980;2022-09-09T12:20:30;30.30;91.30
10384;DHT22;5238;43.508;4.980;2022-09-09T12:23:27;30.20;91.30
10384;DHT22;5238;43.508;4.980;2022-09-09T12:26:25;30.10;91.30
10384;DHT22;5238;43.508;4.980;2022-09-09T12:29:04;30.00;91.30
10384;DHT22;5238;43.508;4.980;2022-09-09T12:31:38;30.00;91.30
10384;DHT22;5238;43.508;4.980;2022-09-09T12:34:13;29.90;91.30
10384;DHT22;5238;43.508;4.980;2022-09-09T12:36:43;29.90;91.30
10384;DHT22;5238;43.508;4.980;2022-09-09T12:39:19;29.90;91.30
10384;DHT22;5238;43.508;4.980;2022-09-09T12:41:58;29.90;91.30
10384;DHT22;5238;43.508;4.980;2022-09-09T12:44:26;29.90;91.30
10384;DHT22;5238;43.508;4.980;2022-09-09T12:46:58;29.80;91.30
10384;DHT22;5238;43.508;4.980;2022-09-09T12:49:31;29.80;91.30
10384;DHT22;5238;43.508;4.980;2022-09-09T12:52:04;29.80;91.30
10384;DHT22;5238;43.508;4.980;2022-09-09T12:54:36;29.70;91.30
10384;DHT22;5238;43.508;4.980;2022-09-09T12:57:11;29.70;91.30
10384;DHT22;5238;43.508;4.980;2022-09-09T12:59:41;29.70;91.30
10384;DHT22;5238;43.508;4.980;2022-09-09T13:02:18;29.70;91.30
10384;DHT22;5238;43.508;4.980;2022-09-09T13:04:46;29.70;91.30
10384;DHT22;5238;43.508;4.980;2022-09-09T13:07:14;29.70;91.30
10384;DHT22;5238;43.508;4.980;2022-09-09T13:09:44;29.70;91.30
10384;DHT22;5238;43.508;4.980;2022-09-09T13:12:16;29.70;91.30
10384;DHT22;5238;43.508;4.980;2022-09-09T13:14:46;29.60;91.30
10384;DHT22;5238;43.508;4.980;2022-09-09T13:17:20;29.60;91.30
10384;DHT22;5238;43.508;4.980;2022-09-09T13:19:49;29.60;91.30
10384;DHT22;5238;43.508;4.980;2022-09-09T13:22:21;29.70;91.30
10384;DHT22;5238;43.508;4.980;2022-09-09T13:25:03;29.70;91.30
10384;DHT22;5238;43.508;4.980;2022-09-09T13:27:34;29.80;91.30
10384;DHT22;5238;43.508;4.980;2022-09-09T13:30:20;29.80;91.30
10384;DHT22;5238;43.508;4.980;2022-09-09T13:33:00;29.80;91.30
10384;DHT22;5238;43.508;4.980;2022-09-09T13:35:28;29.70;91.30
10384;DHT22;5238;43.508;4.980;2022-09-09T13:38:13;29.60;91.30
10384;DHT22;5238;43.508;4.980;2022-09-09T13:40:53;29.60;91.30
10384;DHT22;5238;43.508;4.980;2022-09-09T13:43:24;29.60;91.30
10384;DHT22;5238;43.508;4.980;2022-09-09T13:45:57;29.60;91.30
10384;DHT22;5238;43.508;4.980;2022-09-09T13:48:25;29.60;91.30
10384;DHT22;5238;43.508;4.980;2022-09-09T13:51:00;29.60;91.30
10384;DHT22;5238;43.508;4.980;2022-09-09T13:53:28;29.60;91.30
10384;DHT22;5238;43.508;4.980;2022-09-09T13:55:57;29.50;91.30
10384;DHT22;5238;43.508;4.980;2022-09-09T13:58:26;29.50;91.30
10384;DHT22;5238;43.508;4.980;2022-09-09T14:00:55;29.50;91.30
10384;DHT22;5238;43.508;4.980;2022-09-09T14:03:22;29.50;91.30
10384;DHT22;5238;43.508;4.980;2022-09-09T14:05:50;29.50;91.30
10384;DHT22;5238;43.508;4.980;2022-09-09T14:08:45;29.50;91.30
10384;DHT22;5238;43.508;4.980;2022-09-09T14:11:13;29.60;91.30
10384;DHT22;5238;43.508;4.980;2022-09-09T14:13:42;29.60;91.30
10384;DHT22;5238;43.508;4.980;2022-09-09T14:16:10;29.60;91.30
10384;DHT22;5238;43.508;4.980;2022-09-09T14:18:37;29.60;91.30
10384;DHT22;5238;43.508;4.980;2022-09-09T14:21:06;29.50;91.30
10384;DHT22;5238;43.508;4.980;2022-09-09T14:23:34;29.50;91.30
10384;DHT22;5238;43.508;4.980;2022-09-09T14:26:01;29.50;91.30
10384;DHT22;5238;43.508;4.980;2022-09-09T14:28:28;29.50;91.30
10384;DHT22;5238;43.508;4.980;2022-09-09T14:30:59;29.40;91.30
10384;DHT22;5238;43.508;4.980;2022-09-09T14:33:26;29.40;91.30
10384;DHT22;5238;43.508;4.980;2022-09-09T14:35:56;29.40;91.30
10384;DHT22;5238;43.508;4.980;2022-09-09T14:38:24;29.30;91.30
10384;DHT22;5238;43.508;4.980;2022-09-09T14:40:51;29.30;91.30
10384;DHT22;5238;43.508;4.980;2022-09-09T14:43:18;29.30;91.30
10384;DHT22;5238;43.508;4.980;2022-09-09T14:45:45;29.30;91.30
10384;DHT22;5238;43.508;4.980;2022-09-09T14:48:15;29.30;91.30
10384;DHT22;5238;43.508;4.980;2022-09-09T14:50:41;29.20;91.30
10384;DHT22;5238;43.508;4.980;2022-09-09T14:53:09;29.20;91.30
10384;DHT22;5238;43.508;4.980;2022-09-09T14:55:37;29.20;91.30
10384;DHT22;5238;43.508;4.980;2022-09-09T14:58:05;29.10;91.30
10384;DHT22;5238;43.508;4.980;2022-09-09T15:00:32;29.00;91.30
10384;DHT22;5238;43.508;4.980;2022-09-09T15:02:59;29.00;91.30
10384;DHT22;5238;43.508;4.980;2022-09-09T15:05:28;28.90;91.30
10384;DHT22;5238;43.508;4.980;2022-09-09T15:07:57;28.90;91.30
10384;DHT22;5238;43.508;4.980;2022-09-09T15:10:25;28.90;91.30
10384;DHT22;5238;43.508;4.980;2022-09-09T15:12:52;28.90;91.30
10384;DHT22;5238;43.508;4.980;2022-09-09T15:15:19;28.90;91.30
10384;DHT22;5238;43.508;4.980;2022-09-09T15:17:46;28.90;91.30
10384;DHT22;5238;43.508;4.980;2022-09-09T15:20:13;28.90;91.30
10384;DHT22;5238;43.508;4.980;2022-09-09T15:22:43;28.90;91.30
10384;DHT22;5238;43.508;4.980;2022-09-09T15:25:11;29.00;91.30
10384;DHT22;5238;43.508;4.980;2022-09-09T15:27:39;29.00;91.30
10384;DHT22;5238;43.508;4.980;2022-09-09T15:30:07;29.00;91.30
10384;DHT22;5238;43.508;4.980;2022-09-09T15:32:35;28.90;91.30
10384;DHT22;5238;43.508;4.980;2022-09-09T15:35:05;29.00;91.30
10384;DHT22;5238;43.508;4.980;2022-09-09T15:37:34;29.00;91.30
10384;DHT22;5238;43.508;4.980;2022-09-09T15:40:06;29.00;91.30
10384;DHT22;5238;43.508;4.980;2022-09-09T15:42:36;29.00;91.30
10384;DHT22;5238;43.508;4.980;2022-09-09T15:45:07;29.00;91.30
10384;DHT22;5238;43.508;4.980;2022-09-09T15:47:34;29.00;91.30
10384;DHT22;5238;43.508;4.980;2022-09-09T15:50:01;29.10;91.30
10384;DHT22;5238;43.508;4.980;2022-09-09T15:52:30;29.10;91.30
10384;DHT22;5238;43.508;4.980;2022-09-09T15:54:57;29.10;91.30
10384;DHT22;5238;43.508;4.980;2022-09-09T15:57:26;29.10;91.30
10384;DHT22;5238;43.508;4.980;2022-09-09T15:59:53;29.10;91.30
10384;DHT22;5238;43.508;4.980;2022-09-09T16:02:21;29.00;91.30
10384;DHT22;5238;43.508;4.980;2022-09-09T16:04:48;29.00;91.30
10384;DHT22;5238;43.508;4.980;2022-09-09T16:07:15;29.00;91.30
10384;DHT22;5238;43.508;4.980;2022-09-09T16:09:42;29.00;91.30
10384;DHT22;5238;43.508;4.980;2022-09-09T16:12:10;28.90;91.30
10384;DHT22;5238;43.508;4.980;2022-09-09T16:14:39;28.90;91.30
10384;DHT22;5238;43.508;4.980;2022-09-09T16:17:07;28.80;91.30
10384;DHT22;5238;43.508;4.980;2022-09-09T16:19:36;28.80;91.30
10384;DHT22;5238;43.508;4.980;2022-09-09T16:22:04;28.80;91.30
10384;DHT22;5238;43.508;4.980;2022-09-09T16:24:33;28.70;91.30
10384;DHT22;5238;43.508;4.980;2022-09-09T16:27:01;28.70;91.30
10384;DHT22;5238;43.508;4.980;2022-09-09T16:29:30;28.60;91.30
10384;DHT22;5238;43.508;4.980;2022-09-09T16:31:59;28.60;91.30
10384;DHT22;5238;43.508;4.980;2022-09-09T16:34:26;28.50;91.30
10384;DHT22;5238;43.508;4.980;2022-09-09T16:36:56;28.40;91.30
10384;DHT22;5238;43.508;4.980;2022-09-09T16:39:25;28.30;91.30
10384;DHT22;5238;43.508;4.980;2022-09-09T16:41:52;28.30;91.30
10384;DHT22;5238;43.508;4.980;2022-09-09T16:44:20;28.20;91.30
10384;DHT22;5238;43.508;4.980;2022-09-09T16:46:49;28.20;91.30
10384;DHT22;5238;43.508;4.980;2022-09-09T16:49:22;28.10;91.30
10384;DHT22;5238;43.508;4.980;2022-09-09T16:51:50;28.10;91.30
10384;DHT22;5238;43.508;4.980;2022-09-09T16:54:25;28.00;91.30
10384;DHT22;5238;43.508;4.980;2022-09-09T16:56:54;28.00;91.30
10384;DHT22;5238;43.508;4.980;2022-09-09T16:59:22;27.90;91.30
10384;DHT22;5238;43.508;4.980;2022-09-09T17:01:54;27.80;91.30
10384;DHT22;5238;43.508;4.980;2022-09-09T17:04:26;27.80;91.30
10384;DHT22;5238;43.508;4.980;2022-09-09T17:06:54;27.70;91.30
10384;DHT22;5238;43.508;4.980;2022-09-09T17:09:27;27.70;91.30
10384;DHT22;5238;43.508;4.980;2022-09-09T17:11:56;27.60;91.30
10384;DHT22;5238;43.508;4.980;2022-09-09T17:14:24;27.60;91.30
10384;DHT22;5238;43.508;4.980;2022-09-09T17:16:51;27.50;91.30